createdAt,value
2018-05-27T00:00:16.261Z,9.03
2018-05-27T00:02:43.088Z,8.13
2018-05-27T00:05:09.634Z,9.00
2018-05-27T00:07:36.205Z,8.93
2018-05-27T00:10:02.791Z,8.93
2018-05-27T00:12:29.393Z,9.30
2018-05-27T00:14:55.964Z,8.47
2018-05-27T00:17:22.538Z,9.17
2018-05-27T00:19:49.100Z,8.80
2018-05-27T00:22:15.760Z,10.60
2018-05-27T00:24:42.341Z,10.20
2018-05-27T00:27:09.279Z,11.90
2018-05-27T00:29:35.844Z,8.47
2018-05-27T00:32:02.434Z,8.70
2018-05-27T00:34:28.997Z,8.20
2018-05-27T00:36:55.600Z,11.50
2018-05-27T00:39:22.162Z,9.03
2018-05-27T00:41:48.749Z,10.80
2018-05-27T00:44:15.325Z,9.60
2018-05-27T00:46:41.893Z,9.70
2018-05-27T00:49:08.467Z,9.17
2018-05-27T00:51:35.033Z,10.00
2018-05-27T00:54:01.601Z,9.33
2018-05-27T00:56:28.185Z,9.73
2018-05-27T00:58:54.782Z,9.73
2018-05-27T01:01:21.357Z,9.93
2018-05-27T01:03:47.926Z,9.80
2018-05-27T01:06:14.493Z,9.27
2018-05-27T01:08:41.071Z,10.20
2018-05-27T01:11:07.644Z,9.87
2018-05-27T01:13:34.217Z,11.30
2018-05-27T01:16:00.794Z,9.70
2018-05-27T01:18:27.366Z,10.60
2018-05-27T01:20:54.041Z,9.23
2018-05-27T01:23:20.611Z,9.47
2018-05-27T01:25:47.173Z,9.97
2018-05-27T01:28:13.749Z,8.87
2018-05-27T01:30:40.327Z,8.90
2018-05-27T01:33:06.894Z,9.20
2018-05-27T01:35:33.548Z,10.87
2018-05-27T01:38:00.104Z,10.53
2018-05-27T01:40:26.678Z,10.87
2018-05-27T01:42:53.280Z,10.60
2018-05-27T01:45:19.857Z,10.23
2018-05-27T01:47:46.424Z,10.67
2018-05-27T01:50:13.005Z,10.30
2018-05-27T01:52:39.566Z,10.70
2018-05-27T01:55:06.170Z,9.87
2018-05-27T01:57:32.767Z,10.77
2018-05-27T01:59:59.341Z,10.90
2018-05-27T02:02:25.914Z,13.20
2018-05-27T02:04:52.502Z,12.87
2018-05-27T02:07:19.074Z,11.00
2018-05-27T02:09:45.733Z,11.10
2018-05-27T02:12:12.302Z,13.53
2018-05-27T02:14:38.872Z,10.10
2018-05-27T02:17:05.452Z,12.73
2018-05-27T02:19:32.027Z,10.87
2018-05-27T02:21:58.597Z,10.73
2018-05-27T02:24:25.173Z,10.53
2018-05-27T02:26:51.777Z,10.70
2018-05-27T02:29:18.377Z,10.40
2018-05-27T02:31:44.982Z,10.80
2018-05-27T02:34:11.562Z,10.77
2018-05-27T02:36:38.129Z,10.80
2018-05-27T02:39:05.395Z,11.13
2018-05-27T02:41:31.962Z,11.17
2018-05-27T02:43:58.544Z,11.10
2018-05-27T02:46:25.118Z,11.03
2018-05-27T02:48:51.723Z,11.73
2018-05-27T02:51:18.298Z,11.40
2018-05-27T02:53:44.865Z,11.10
2018-05-27T02:56:11.461Z,11.30
2018-05-27T02:58:38.033Z,13.43
2018-05-27T03:01:04.608Z,13.00
2018-05-27T03:03:31.677Z,11.87
2018-05-27T03:05:58.268Z,11.27
2018-05-27T03:08:24.885Z,11.13
2018-05-27T03:10:51.465Z,11.10
2018-05-27T03:13:18.065Z,11.83
2018-05-27T03:15:44.653Z,11.50
2018-05-27T03:18:11.238Z,12.17
2018-05-27T03:20:37.830Z,12.23
2018-05-27T03:23:04.415Z,11.57
2018-05-27T03:25:31.030Z,11.97
2018-05-27T03:27:57.607Z,14.60
2018-05-27T03:30:24.193Z,11.77
2018-05-27T03:32:50.781Z,11.87
2018-05-27T03:35:17.397Z,11.90
2018-05-27T03:37:43.973Z,11.07
2018-05-27T03:40:10.553Z,11.80
2018-05-27T03:42:37.143Z,11.90
2018-05-27T03:45:03.721Z,12.10
2018-05-27T03:47:30.309Z,13.13
2018-05-27T03:49:56.885Z,13.10
2018-05-27T03:52:23.466Z,11.63
2018-05-27T03:54:50.056Z,11.53
2018-05-27T03:57:16.621Z,12.37
2018-05-27T03:59:43.202Z,10.97
2018-05-27T04:02:09.779Z,10.80
2018-05-27T04:04:53.005Z,12.37
2018-05-27T04:07:25.404Z,11.57
2018-05-27T04:09:51.989Z,15.13
2018-05-27T04:12:18.578Z,16.53
2018-05-27T04:14:45.189Z,11.83
2018-05-27T04:17:11.784Z,11.50
2018-05-27T04:19:38.367Z,11.20
2018-05-27T04:22:04.945Z,11.40
2018-05-27T04:24:31.562Z,11.03
2018-05-27T04:26:58.139Z,11.07
2018-05-27T04:29:24.710Z,10.97
2018-05-27T04:31:51.293Z,11.20
2018-05-27T04:34:17.868Z,11.27
2018-05-27T04:36:44.461Z,10.57
2018-05-27T04:39:11.038Z,10.63
2018-05-27T04:41:37.949Z,11.47
2018-05-27T04:44:04.537Z,10.50
2018-05-27T04:46:31.121Z,9.43
2018-05-27T04:48:57.707Z,10.73
2018-05-27T04:51:24.281Z,13.00
2018-05-27T04:53:50.857Z,9.33
2018-05-27T04:56:17.433Z,9.90
2018-05-27T04:58:44.022Z,11.80
2018-05-27T05:01:10.607Z,10.90
2018-05-27T05:03:37.198Z,9.40
2018-05-27T05:06:03.773Z,10.03
2018-05-27T05:08:30.357Z,9.60
2018-05-27T05:10:56.947Z,9.60
2018-05-27T05:13:23.515Z,10.83
2018-05-27T05:15:50.094Z,8.97
2018-05-27T05:18:16.688Z,9.47
2018-05-27T05:20:43.263Z,8.80
2018-05-27T05:23:09.853Z,9.00
2018-05-27T05:25:36.461Z,9.23
2018-05-27T05:28:03.033Z,9.80
2018-05-27T05:30:29.601Z,8.93
2018-05-27T05:32:56.193Z,13.93
2018-05-27T05:35:22.762Z,9.87
2018-05-27T05:37:49.370Z,8.60
2018-05-27T05:40:15.961Z,9.60
2018-05-27T05:42:42.534Z,8.77
2018-05-27T05:45:09.109Z,9.40
2018-05-27T05:47:35.688Z,8.97
2018-05-27T05:50:02.265Z,8.70
2018-05-27T05:52:28.847Z,9.10
2018-05-27T05:54:55.610Z,8.60
2018-05-27T05:57:22.161Z,8.83
2018-05-27T05:59:48.740Z,8.77
2018-05-27T06:02:15.318Z,9.90
2018-05-27T06:04:41.902Z,8.73
2018-05-27T06:07:08.489Z,11.43
2018-05-27T06:09:35.061Z,8.67
2018-05-27T06:12:01.656Z,9.10
2018-05-27T06:14:28.228Z,9.90
2018-05-27T06:16:54.800Z,9.23
2018-05-27T06:19:21.382Z,8.77
2018-05-27T06:21:47.941Z,8.70
2018-05-27T06:24:14.511Z,8.87
2018-05-27T06:26:41.086Z,9.03
2018-05-27T06:29:07.659Z,15.37
2018-05-27T06:31:34.234Z,8.50
2018-05-27T06:34:00.793Z,9.20
2018-05-27T06:36:27.366Z,8.27
2018-05-27T06:38:53.938Z,9.07
2018-05-27T06:41:20.514Z,9.23
2018-05-27T06:43:47.076Z,9.43
2018-05-27T06:46:14.165Z,8.43
2018-05-27T06:48:40.733Z,8.90
2018-05-27T06:51:07.305Z,8.60
2018-05-27T06:53:33.882Z,8.47
2018-05-27T06:56:00.453Z,9.33
2018-05-27T06:58:27.025Z,9.10
2018-05-27T07:00:53.597Z,8.53
2018-05-27T07:03:20.169Z,8.70
2018-05-27T07:05:46.758Z,10.13
2018-05-27T07:08:13.331Z,8.40
2018-05-27T07:10:39.911Z,12.03
2018-05-27T07:13:06.498Z,8.77
2018-05-27T07:15:33.086Z,8.80
2018-05-27T07:17:59.654Z,9.03
2018-05-27T07:20:26.230Z,7.70
2018-05-27T07:22:52.806Z,8.63
2018-05-27T07:25:19.381Z,8.73
2018-05-27T07:27:45.953Z,8.70
2018-05-27T07:30:12.566Z,9.20
2018-05-27T07:32:39.136Z,8.63
2018-05-27T07:35:05.712Z,8.87
2018-05-27T07:37:32.285Z,9.67
2018-05-27T07:39:58.919Z,9.03
2018-05-27T07:42:25.478Z,9.50
2018-05-27T07:44:52.049Z,8.37
2018-05-27T07:47:18.625Z,9.93
2018-05-27T07:49:45.200Z,11.20
2018-05-27T07:52:11.769Z,9.20
2018-05-27T07:54:38.350Z,9.13
2018-05-27T07:57:04.945Z,9.67
2018-05-27T07:59:31.523Z,9.30
2018-05-27T08:01:58.093Z,8.80
2018-05-27T08:04:24.679Z,9.53
2018-05-27T08:06:51.248Z,10.27
2018-05-27T08:09:17.829Z,11.30
2018-05-27T08:11:44.405Z,10.50
2018-05-27T08:14:11.096Z,10.10
2018-05-27T08:16:37.644Z,10.47
2018-05-27T08:19:04.227Z,15.50
2018-05-27T08:21:30.801Z,10.23
2018-05-27T08:23:57.440Z,8.30
2018-05-27T08:26:24.013Z,8.50
2018-05-27T08:28:50.581Z,9.07
2018-05-27T08:31:17.165Z,8.43
2018-05-27T08:33:43.749Z,9.93
2018-05-27T08:36:10.321Z,10.07
2018-05-27T08:38:36.885Z,9.60
2018-05-27T08:41:03.470Z,10.73
2018-05-27T08:43:30.041Z,9.03
2018-05-27T08:45:56.621Z,13.37
2018-05-27T08:48:23.198Z,9.00
2018-05-27T08:50:49.796Z,8.97
2018-05-27T08:53:16.373Z,8.73
2018-05-27T08:55:43.141Z,9.07
2018-05-27T08:58:09.733Z,11.47
2018-05-27T09:00:36.352Z,8.97
2018-05-27T09:03:02.929Z,9.13
2018-05-27T09:05:29.493Z,8.37
2018-05-27T09:07:56.072Z,8.07
2018-05-27T09:10:22.633Z,8.30
2018-05-27T09:12:49.201Z,7.80
2018-05-27T09:15:15.820Z,16.13
2018-05-27T09:17:42.349Z,7.37
2018-05-27T09:20:08.933Z,7.90
2018-05-27T09:22:35.497Z,8.03
2018-05-27T09:25:02.133Z,8.20
2018-05-27T09:27:28.681Z,8.10
2018-05-27T09:29:55.253Z,7.23
2018-05-27T09:32:21.829Z,7.30
2018-05-27T09:34:48.407Z,7.30
2018-05-27T09:37:14.983Z,6.90
2018-05-27T09:39:41.553Z,6.27
2018-05-27T09:42:08.125Z,9.67
2018-05-27T09:44:34.742Z,6.97
2018-05-27T09:47:01.592Z,7.33
2018-05-27T09:49:28.162Z,7.50
2018-05-27T09:51:54.741Z,8.37
2018-05-27T09:54:21.318Z,7.00
2018-05-27T09:56:47.893Z,6.70
2018-05-27T09:59:14.474Z,7.43
2018-05-27T10:01:41.038Z,8.20
2018-05-27T10:04:07.605Z,7.17
2018-05-27T10:06:34.201Z,6.60
2018-05-27T10:09:00.796Z,7.07
2018-05-27T10:11:27.455Z,8.67
2018-05-27T10:13:54.008Z,6.67
2018-05-27T10:16:20.573Z,8.77
2018-05-27T10:18:47.425Z,6.83
2018-05-27T10:21:13.989Z,6.80
2018-05-27T10:23:40.560Z,6.70
2018-05-27T10:26:07.167Z,6.43
2018-05-27T10:28:33.699Z,6.77
2018-05-27T10:31:00.269Z,6.63
2018-05-27T10:33:26.842Z,7.20
2018-05-27T10:35:53.417Z,6.63
2018-05-27T10:38:19.997Z,6.30
2018-05-27T10:40:46.571Z,6.10
2018-05-27T10:43:13.142Z,6.70
2018-05-27T10:45:40.066Z,6.27
2018-05-27T10:48:06.628Z,6.80
2018-05-27T10:50:33.189Z,7.20
2018-05-27T10:52:59.769Z,6.80
2018-05-27T10:55:26.333Z,6.57
2018-05-27T10:57:52.901Z,7.17
2018-05-27T11:00:19.465Z,7.50
2018-05-27T11:02:46.049Z,7.93
2018-05-27T11:05:12.617Z,7.00
2018-05-27T11:07:39.193Z,8.10
2018-05-27T11:10:05.784Z,8.53
2018-05-27T11:12:32.345Z,9.50
2018-05-27T11:14:58.929Z,9.17
2018-05-27T11:17:25.485Z,7.63
2018-05-27T11:19:52.057Z,7.97
2018-05-27T11:22:18.625Z,8.20
2018-05-27T11:24:45.205Z,8.83
2018-05-27T11:27:11.777Z,8.27
2018-05-27T11:29:38.355Z,7.47
2018-05-27T11:32:04.925Z,8.30
2018-05-27T11:34:31.494Z,7.60
2018-05-27T11:36:58.121Z,8.20
2018-05-27T11:39:24.667Z,9.90
2018-05-27T11:41:51.231Z,8.47
2018-05-27T11:44:17.797Z,9.00
2018-05-27T11:46:45.445Z,9.53
2018-05-27T11:49:12.061Z,8.47
2018-05-27T11:51:38.626Z,8.90
2018-05-27T11:54:05.193Z,9.10
2018-05-27T11:56:31.782Z,9.13
2018-05-27T11:58:58.350Z,9.87
2018-05-27T12:01:24.917Z,9.33
2018-05-27T12:03:51.494Z,8.57
2018-05-27T12:06:18.130Z,8.73
2018-05-27T12:08:44.708Z,11.13
2018-05-27T12:11:11.284Z,8.97
2018-05-27T12:13:37.848Z,8.10
2018-05-27T12:16:04.436Z,9.03
2018-05-27T12:18:30.985Z,10.10
2018-05-27T12:20:57.565Z,12.97
2018-05-27T12:23:24.190Z,6.67
2018-05-27T12:25:50.786Z,6.10
2018-05-27T12:28:17.361Z,8.70
2018-05-27T12:30:44.041Z,10.13
2018-05-27T12:33:10.617Z,8.63
2018-05-27T12:35:37.189Z,7.30
2018-05-27T12:38:03.756Z,5.53
2018-05-27T12:40:30.334Z,11.53
2018-05-27T12:42:56.928Z,6.40
2018-05-27T12:45:23.493Z,5.97
2018-05-27T12:47:50.066Z,5.57
2018-05-27T12:50:16.649Z,5.83
2018-05-27T12:52:43.229Z,10.20
2018-05-27T12:55:09.797Z,7.00
2018-05-27T12:57:36.386Z,5.83
2018-05-27T13:00:02.964Z,8.80
2018-05-27T13:02:29.513Z,6.10
2018-05-27T13:04:56.085Z,6.23
2018-05-27T13:07:22.677Z,7.33
2018-05-27T13:09:49.329Z,7.73
2018-05-27T13:12:15.901Z,8.23
2018-05-27T13:14:42.491Z,6.07
2018-05-27T13:17:09.061Z,5.70
2018-05-27T13:19:35.630Z,6.20
2018-05-27T13:22:02.197Z,8.63
2018-05-27T13:24:28.769Z,5.43
2018-05-27T13:26:55.365Z,5.50
2018-05-27T13:29:22.054Z,5.43
2018-05-27T13:31:50.485Z,5.60
2018-05-27T13:34:17.068Z,5.43
2018-05-27T13:36:43.639Z,6.53
2018-05-27T13:39:10.205Z,6.10
2018-05-27T13:41:36.781Z,6.50
2018-05-27T13:44:03.371Z,5.90
2018-05-27T13:46:29.934Z,5.50
2018-05-27T13:48:56.514Z,5.50
2018-05-27T13:51:23.081Z,6.77
2018-05-27T13:53:49.655Z,7.63
2018-05-27T13:56:16.397Z,7.73
2018-05-27T13:58:43.089Z,6.07
2018-05-27T14:01:09.655Z,5.23
2018-05-27T14:03:36.235Z,8.27
2018-05-27T14:06:02.825Z,5.27
2018-05-27T14:08:29.370Z,10.07
2018-05-27T14:10:55.937Z,6.40
2018-05-27T14:13:22.508Z,5.33
2018-05-27T14:15:49.117Z,5.70
2018-05-27T14:18:15.693Z,7.00
2018-05-27T14:20:42.275Z,4.37
2018-05-27T14:23:08.845Z,4.77
2018-05-27T14:25:35.422Z,7.43
2018-05-27T14:28:01.993Z,5.10
2018-05-27T14:30:28.582Z,5.00
2018-05-27T14:32:55.158Z,5.37
2018-05-27T14:35:21.813Z,5.80
2018-05-27T14:37:48.382Z,4.90
2018-05-27T14:40:14.947Z,6.87
2018-05-27T14:42:41.532Z,8.57
2018-05-27T14:45:08.250Z,6.70
2018-05-27T14:47:34.868Z,7.80
2018-05-27T14:50:01.598Z,4.77
2018-05-27T14:52:28.170Z,7.77
2018-05-27T14:54:54.737Z,4.70
2018-05-27T14:57:21.357Z,9.03
2018-05-27T14:59:47.929Z,7.40
2018-05-27T15:02:15.140Z,6.00
2018-05-27T15:04:41.717Z,4.03
2018-05-27T15:07:09.385Z,6.13
2018-05-27T15:09:35.982Z,8.03
2018-05-27T15:12:04.033Z,4.07
2018-05-27T15:14:30.633Z,5.10
2018-05-27T15:16:57.233Z,5.67
2018-05-27T15:19:23.805Z,5.40
2018-05-27T15:21:50.485Z,6.00
2018-05-27T15:24:17.053Z,5.53
2018-05-27T15:26:43.886Z,7.00
2018-05-27T15:29:10.460Z,4.20
2018-05-27T15:31:37.085Z,6.43
2018-05-27T15:34:03.643Z,7.30
2018-05-27T15:36:30.237Z,4.30
2018-05-27T15:38:56.793Z,5.57
2018-05-27T15:41:23.363Z,6.10
2018-05-27T15:43:50.305Z,4.80
2018-05-27T15:46:16.869Z,7.93
2018-05-27T15:48:43.447Z,5.97
2018-05-27T15:51:10.029Z,5.67
2018-05-27T15:53:36.597Z,8.03
2018-05-27T15:56:03.169Z,5.20
2018-05-27T15:58:29.733Z,8.70
2018-05-27T16:00:56.319Z,11.10
2018-05-27T16:03:22.885Z,16.20
2018-05-27T16:05:49.512Z,6.43
2018-05-27T16:08:16.102Z,10.07
2018-05-27T16:10:42.672Z,9.57
2018-05-27T16:13:09.238Z,5.87
2018-05-27T16:15:35.805Z,9.63
2018-05-27T16:18:02.385Z,6.93
2018-05-27T16:20:28.955Z,9.73
2018-05-27T16:22:55.575Z,13.43
2018-05-27T16:25:22.102Z,7.63
2018-05-27T16:27:48.706Z,10.93
2018-05-27T16:30:15.277Z,8.10
2018-05-27T16:32:41.845Z,7.67
2018-05-27T16:35:08.416Z,8.87
2018-05-27T16:37:34.984Z,4.90
2018-05-27T16:40:01.554Z,9.27
2018-05-27T16:42:28.117Z,5.57
2018-05-27T16:44:54.713Z,7.87
2018-05-27T16:47:21.280Z,9.60
2018-05-27T16:49:47.850Z,8.70
2018-05-27T16:52:14.425Z,7.60
2018-05-27T16:54:40.995Z,6.17
2018-05-27T16:57:07.569Z,6.90
2018-05-27T16:59:34.233Z,8.33
2018-05-27T17:02:00.801Z,11.83
2018-05-27T17:04:27.373Z,9.43
2018-05-27T17:06:53.957Z,11.97
2018-05-27T17:09:20.533Z,8.50
2018-05-27T17:11:47.111Z,17.20
2018-05-27T17:14:14.031Z,14.40
2018-05-27T17:16:40.589Z,9.17
2018-05-27T17:19:07.162Z,10.40
2018-05-27T17:21:33.746Z,11.77
2018-05-27T17:24:00.304Z,10.03
2018-05-27T17:26:26.876Z,7.50
2018-05-27T17:28:53.459Z,6.80
2018-05-27T17:31:20.028Z,9.60
2018-05-27T17:33:46.595Z,13.30
2018-05-27T17:36:13.163Z,8.03
2018-05-27T17:38:39.742Z,13.37
2018-05-27T17:41:06.312Z,8.53
2018-05-27T17:43:32.886Z,13.80
2018-05-27T17:45:59.466Z,11.30
2018-05-27T17:48:26.042Z,10.90
2018-05-27T17:50:52.626Z,11.47
2018-05-27T17:53:19.197Z,8.70
2018-05-27T17:55:45.769Z,10.17
2018-05-27T17:58:12.353Z,11.40
2018-05-27T18:00:38.926Z,8.47
2018-05-27T18:03:05.500Z,8.90
2018-05-27T18:05:32.076Z,7.80
2018-05-27T18:07:58.645Z,10.03
2018-05-27T18:10:25.304Z,10.87
2018-05-27T18:12:51.871Z,12.03
2018-05-27T18:15:18.450Z,8.33
2018-05-27T18:17:45.017Z,9.83
2018-05-27T18:20:11.588Z,8.67
2018-05-27T18:22:38.161Z,7.63
2018-05-27T18:25:04.731Z,9.30
2018-05-27T18:27:31.304Z,7.63
2018-05-27T18:29:57.873Z,10.80
2018-05-27T18:32:24.449Z,12.43
2018-05-27T18:34:51.020Z,8.13
2018-05-27T18:37:17.597Z,8.43
2018-05-27T18:39:44.157Z,8.90
2018-05-27T18:42:10.725Z,9.07
2018-05-27T18:44:37.315Z,14.93
2018-05-27T18:47:03.958Z,21.70
2018-05-27T18:49:30.537Z,16.17
2018-05-27T18:51:57.119Z,18.60
2018-05-27T18:54:23.689Z,15.77
2018-05-27T18:56:50.260Z,12.30
2018-05-27T18:59:16.849Z,16.30
2018-05-27T19:01:43.442Z,18.57
2018-05-27T19:04:09.997Z,13.83
2018-05-27T19:06:36.579Z,15.93
2018-05-27T19:09:03.163Z,16.13
2018-05-27T19:11:29.737Z,12.30
2018-05-27T19:13:56.302Z,9.10
2018-05-27T19:18:51.108Z,13.20
2018-05-27T19:21:17.708Z,16.87
2018-05-27T19:23:44.321Z,11.20
2018-05-27T19:26:10.904Z,11.90
2018-05-27T19:28:37.505Z,17.70
2018-05-27T19:31:04.082Z,13.40
2018-05-27T19:33:30.654Z,11.10
2018-05-27T19:35:57.225Z,11.33
2018-05-27T19:38:23.878Z,14.60
2018-05-27T19:40:50.497Z,15.40
2018-05-27T19:43:17.502Z,17.40
2018-05-27T19:45:44.044Z,11.07
2018-05-27T19:48:10.612Z,15.60
2018-05-27T19:50:37.189Z,15.10
2018-05-27T19:53:03.769Z,14.70
2018-05-27T19:55:30.357Z,14.90
2018-05-27T19:57:57.064Z,18.83
2018-05-27T20:00:23.635Z,17.73
2018-05-27T20:02:50.232Z,14.87
2018-05-27T20:05:16.805Z,18.90
2018-05-27T20:07:43.377Z,10.37
2018-05-27T20:10:09.962Z,15.23
2018-05-27T20:12:36.538Z,12.60
2018-05-27T20:15:03.135Z,14.00
2018-05-27T20:17:30.145Z,13.37
2018-05-27T20:19:56.702Z,15.57
2018-05-27T20:22:23.274Z,12.73
2018-05-27T20:24:49.856Z,9.90
2018-05-27T20:27:16.424Z,12.20
2018-05-27T20:29:42.997Z,13.10
2018-05-27T20:32:09.577Z,12.30
2018-05-27T20:34:36.178Z,9.40
2018-05-27T20:37:02.747Z,13.87
2018-05-27T20:39:29.313Z,9.73
2018-05-27T20:41:55.895Z,11.43
2018-05-27T20:44:22.469Z,9.97
2018-05-27T20:46:49.050Z,11.30
2018-05-27T20:49:15.625Z,8.90
2018-05-27T20:51:42.205Z,13.00
2018-05-27T20:54:08.785Z,10.40
2018-05-27T20:56:35.383Z,13.07
2018-05-27T20:59:01.942Z,15.43
2018-05-27T21:01:28.517Z,11.47
2018-05-27T21:03:55.097Z,10.07
2018-05-27T21:06:21.673Z,10.07
2018-05-27T21:08:48.269Z,10.47
2018-05-27T21:11:14.887Z,9.17
2018-05-27T21:13:41.455Z,9.17
2018-05-27T21:16:08.036Z,12.47
2018-05-27T21:18:34.595Z,9.50
2018-05-27T21:21:01.176Z,8.67
2018-05-27T21:23:27.749Z,10.67
2018-05-27T21:25:54.330Z,8.83
2018-05-27T21:28:20.927Z,12.70
2018-05-27T21:30:47.493Z,9.10
2018-05-27T21:33:14.151Z,9.70
2018-05-27T21:35:40.717Z,8.20
2018-05-27T21:38:07.298Z,8.50
2018-05-27T21:40:33.865Z,9.63
2018-05-27T21:43:00.443Z,12.20
2018-05-27T21:45:27.038Z,11.17
2018-05-27T21:47:53.661Z,12.10
2018-05-27T21:50:20.233Z,15.93
2018-05-27T21:52:46.816Z,10.60
2018-05-27T21:55:13.385Z,9.40
2018-05-27T21:57:39.961Z,10.17
2018-05-27T22:00:06.525Z,9.53
2018-05-27T22:02:33.102Z,9.37
2018-05-27T22:04:59.673Z,8.97
2018-05-27T22:07:26.245Z,12.43
2018-05-27T22:09:52.825Z,11.17
2018-05-27T22:12:19.400Z,8.87
2018-05-27T22:14:45.979Z,14.07
2018-05-27T22:17:12.546Z,9.50
2018-05-27T22:19:39.148Z,9.33
2018-05-27T22:22:05.726Z,10.03
2018-05-27T22:24:32.296Z,10.77
2018-05-27T22:26:58.874Z,8.80
2018-05-27T22:29:25.450Z,9.63
2018-05-27T22:31:52.037Z,9.20
2018-05-27T22:34:18.609Z,8.47
2018-05-27T22:36:45.186Z,12.60
2018-05-27T22:39:11.765Z,9.63
2018-05-27T22:41:38.337Z,9.37
2018-05-27T22:44:04.922Z,9.00
2018-05-27T22:46:31.493Z,10.07
2018-05-27T22:48:58.097Z,9.80
2018-05-27T22:51:24.662Z,9.93
2018-05-27T22:53:51.233Z,9.90
2018-05-27T22:56:17.817Z,7.80
2018-05-27T22:58:44.389Z,9.70
2018-05-27T23:01:10.977Z,9.23
2018-05-27T23:03:37.541Z,9.17
2018-05-27T23:06:04.109Z,8.77
2018-05-27T23:08:30.704Z,12.43
2018-05-27T23:10:57.286Z,10.70
2018-05-27T23:13:23.871Z,8.60
2018-05-27T23:15:50.430Z,8.30
2018-05-27T23:18:17.002Z,8.60
2018-05-27T23:20:43.568Z,9.37
2018-05-27T23:23:10.149Z,9.50
2018-05-27T23:25:36.734Z,11.73
2018-05-27T23:28:03.299Z,7.90
2018-05-27T23:30:29.869Z,10.37
2018-05-27T23:32:56.465Z,11.80
2018-05-27T23:35:23.038Z,12.63
2018-05-27T23:37:49.608Z,9.10
2018-05-27T23:40:16.185Z,8.40
2018-05-27T23:42:42.757Z,8.70
2018-05-27T23:45:09.341Z,9.70
2018-05-27T23:47:35.940Z,11.33
2018-05-27T23:50:02.494Z,9.27
2018-05-27T23:52:29.062Z,8.37
2018-05-27T23:54:55.641Z,8.60
2018-05-27T23:57:22.213Z,13.20
2018-05-27T23:59:48.782Z,8.00
